Aviation Digital Data Service (ADDS)

Output produced by METARs form (1820 UTC 19 April 2019)
found at http://www.aviationweather.gov/metar/data/
 
Forecast for: VVCI (CAT VI , VN)
Text: TAF VVCI 191700Z 1918/2018 14006KT 6000 FEW025
Forecast period: 1800 UTC 19 April 2019 to 1800 UTC 20 April 2019
Forecast type: FROM: standard forecast or significant change
Winds: from the SE (140 degrees) at 7 MPH (6 knots; 3.1 m/s)
Visibility: 4 miles (6 km)
Ceiling: at least 12,000 feet AGL
Clouds: few clouds at 2500 feet AGL
Weather: no significant weather forecast for this period